sensor_id;sensor_type;location;lat;lon;timestamp;pressure;altitude;pressure_sealevel;temperature;humidity
65897;BME280;52677;50.898;10.854;2023-05-07T00:01:49;98795.63;;;9.71;100.00
65897;BME280;52677;50.898;10.854;2023-05-07T00:03:50;98793.16;;;9.66;100.00
65897;BME280;52677;50.898;10.854;2023-05-07T00:05:50;98789.59;;;9.66;100.00
65897;BME280;52677;50.898;10.854;2023-05-07T00:07:51;98789.97;;;9.64;100.00
65897;BME280;52677;50.898;10.854;2023-05-07T00:09:52;98791.19;;;9.67;100.00
65897;BME280;52677;50.898;10.854;2023-05-07T00:11:53;98794.31;;;9.65;100.00
65897;BME280;52677;50.898;10.854;2023-05-07T00:13:53;98795.84;;;9.63;100.00
65897;BME280;52677;50.898;10.854;2023-05-07T00:15:53;98793.94;;;9.67;100.00
65897;BME280;52677;50.898;10.854;2023-05-07T00:17:54;98799.31;;;9.60;100.00
65897;BME280;52677;50.898;10.854;2023-05-07T00:19:54;98794.47;;;9.53;100.00
65897;BME280;52677;50.898;10.854;2023-05-07T00:21:54;98804.84;;;9.60;100.00
65897;BME280;52677;50.898;10.854;2023-05-07T00:23:55;98802.81;;;9.56;100.00
65897;BME280;52677;50.898;10.854;2023-05-07T00:25:56;98804.41;;;9.57;100.00
65897;BME280;52677;50.898;10.854;2023-05-07T00:27:56;98793.47;;;9.61;100.00
65897;BME280;52677;50.898;10.854;2023-05-07T00:30:02;98803.34;;;9.62;100.00
65897;BME280;52677;50.898;10.854;2023-05-07T00:32:03;98807.63;;;9.60;100.00
65897;BME280;52677;50.898;10.854;2023-05-07T00:34:03;98798.47;;;9.55;100.00
65897;BME280;52677;50.898;10.854;2023-05-07T00:36:04;98813.97;;;9.60;100.00
65897;BME280;52677;50.898;10.854;2023-05-07T00:38:04;98809.25;;;9.61;100.00
65897;BME280;52677;50.898;10.854;2023-05-07T00:40:05;98804.41;;;9.57;100.00
65897;BME280;52677;50.898;10.854;2023-05-07T00:42:07;98806.38;;;9.57;100.00
65897;BME280;52677;50.898;10.854;2023-05-07T00:44:08;98807.91;;;9.54;100.00
65897;BME280;52677;50.898;10.854;2023-05-07T00:46:08;98808.34;;;9.56;100.00
65897;BME280;52677;50.898;10.854;2023-05-07T00:48:10;98805.16;;;9.54;100.00
65897;BME280;52677;50.898;10.854;2023-05-07T00:50:10;98805.44;;;9.49;100.00
65897;BME280;52677;50.898;10.854;2023-05-07T00:52:16;98801.16;;;9.52;100.00
65897;BME280;52677;50.898;10.854;2023-05-07T00:54:17;98801.50;;;9.50;100.00
65897;BME280;52677;50.898;10.854;2023-05-07T00:56:17;98798.69;;;9.47;100.00
65897;BME280;52677;50.898;10.854;2023-05-07T00:58:19;98796.34;;;9.49;100.00
65897;BME280;52677;50.898;10.854;2023-05-07T01:00:20;98797.47;;;9.44;100.00
65897;BME280;52677;50.898;10.854;2023-05-07T01:02:21;98793.81;;;9.40;100.00
65897;BME280;52677;50.898;10.854;2023-05-07T01:04:21;98798.09;;;9.38;100.00
65897;BME280;52677;50.898;10.854;2023-05-07T01:06:23;98796.50;;;9.37;100.00
65897;BME280;52677;50.898;10.854;2023-05-07T01:08:26;98793.66;;;9.33;100.00
65897;BME280;52677;50.898;10.854;2023-05-07T01:10:29;98800.28;;;9.28;100.00
65897;BME280;52677;50.898;10.854;2023-05-07T01:12:34;98801.13;;;9.33;100.00
65897;BME280;52677;50.898;10.854;2023-05-07T01:14:35;98788.88;;;9.30;100.00
65897;BME280;52677;50.898;10.854;2023-05-07T01:16:36;98796.25;;;9.26;100.00
65897;BME280;52677;50.898;10.854;2023-05-07T01:18:37;98791.09;;;9.24;100.00
65897;BME280;52677;50.898;10.854;2023-05-07T01:20:37;98794.22;;;9.23;100.00
65897;BME280;52677;50.898;10.854;2023-05-07T01:22:38;98787.09;;;9.22;100.00
65897;BME280;52677;50.898;10.854;2023-05-07T01:24:38;98778.03;;;9.21;100.00
65897;BME280;52677;50.898;10.854;2023-05-07T01:26:39;98772.41;;;9.18;100.00
65897;BME280;52677;50.898;10.854;2023-05-07T01:28:39;98778.72;;;9.18;100.00
65897;BME280;52677;50.898;10.854;2023-05-07T01:30:41;98781.94;;;9.20;100.00
65897;BME280;52677;50.898;10.854;2023-05-07T01:32:49;98780.69;;;9.18;100.00
65897;BME280;52677;50.898;10.854;2023-05-07T01:34:52;98778.31;;;9.16;100.00
65897;BME280;52677;50.898;10.854;2023-05-07T01:36:54;98778.31;;;9.16;100.00
65897;BME280;52677;50.898;10.854;2023-05-07T01:38:56;98775.84;;;9.11;100.00
65897;BME280;52677;50.898;10.854;2023-05-07T01:40:58;98772.72;;;9.13;100.00
65897;BME280;52677;50.898;10.854;2023-05-07T01:42:59;98775.03;;;9.11;100.00
65897;BME280;52677;50.898;10.854;2023-05-07T01:44:59;98767.91;;;9.10;100.00
65897;BME280;52677;50.898;10.854;2023-05-07T01:47:01;98770.22;;;9.08;100.00
65897;BME280;52677;50.898;10.854;2023-05-07T01:49:02;98764.72;;;9.08;100.00
65897;BME280;52677;50.898;10.854;2023-05-07T01:51:02;98763.53;;;9.09;100.00
65897;BME280;52677;50.898;10.854;2023-05-07T01:53:03;98765.59;;;9.12;100.00
65897;BME280;52677;50.898;10.854;2023-05-07T01:55:04;98759.63;;;9.10;100.00
65897;BME280;52677;50.898;10.854;2023-05-07T01:57:05;98765.13;;;9.10;100.00
65897;BME280;52677;50.898;10.854;2023-05-07T01:59:05;98776.53;;;9.08;100.00
65897;BME280;52677;50.898;10.854;2023-05-07T02:01:05;98772.63;;;9.09;100.00
65897;BME280;52677;50.898;10.854;2023-05-07T02:03:06;98775.38;;;9.09;100.00
65897;BME280;52677;50.898;10.854;2023-05-07T02:05:06;98768.72;;;9.10;100.00
65897;BME280;52677;50.898;10.854;2023-05-07T02:07:07;98782.16;;;9.12;100.00
65897;BME280;52677;50.898;10.854;2023-05-07T02:09:07;98775.31;;;9.06;100.00
65897;BME280;52677;50.898;10.854;2023-05-07T02:11:09;98773.34;;;9.06;100.00
65897;BME280;52677;50.898;10.854;2023-05-07T02:13:09;98780.09;;;9.09;100.00
65897;BME280;52677;50.898;10.854;2023-05-07T02:15:10;98785.72;;;9.12;100.00
65897;BME280;52677;50.898;10.854;2023-05-07T02:17:10;98784.13;;;9.11;100.00
65897;BME280;52677;50.898;10.854;2023-05-07T02:19:10;98781.63;;;9.06;100.00
65897;BME280;52677;50.898;10.854;2023-05-07T02:21:11;98780.41;;;9.04;100.00
65897;BME280;52677;50.898;10.854;2023-05-07T02:23:11;98787.78;;;8.99;100.00
65897;BME280;52677;50.898;10.854;2023-05-07T02:25:11;98786.56;;;8.97;100.00
65897;BME280;52677;50.898;10.854;2023-05-07T02:27:12;98780.31;;;9.00;100.00
65897;BME280;52677;50.898;10.854;2023-05-07T02:29:12;98792.94;;;9.01;100.00
65897;BME280;52677;50.898;10.854;2023-05-07T02:31:12;98780.78;;;9.02;100.00
65897;BME280;52677;50.898;10.854;2023-05-07T02:33:13;98785.13;;;9.03;100.00
65897;BME280;52677;50.898;10.854;2023-05-07T02:35:14;98789.38;;;9.00;100.00
65897;BME280;52677;50.898;10.854;2023-05-07T02:37:14;98796.50;;;9.01;100.00
65897;BME280;52677;50.898;10.854;2023-05-07T02:39:16;98790.53;;;8.99;100.00
65897;BME280;52677;50.898;10.854;2023-05-07T02:41:16;98792.59;;;9.03;100.00
65897;BME280;52677;50.898;10.854;2023-05-07T02:43:17;98787.41;;;9.01;100.00
65897;BME280;52677;50.898;10.854;2023-05-07T02:45:17;98794.84;;;8.97;100.00
65897;BME280;52677;50.898;10.854;2023-05-07T02:47:18;98784.97;;;8.96;100.00
65897;BME280;52677;50.898;10.854;2023-05-07T02:49:18;98776.59;;;8.92;100.00
65897;BME280;52677;50.898;10.854;2023-05-07T02:51:20;98788.88;;;8.95;100.00
65897;BME280;52677;50.898;10.854;2023-05-07T02:53:20;98796.00;;;8.96;100.00
65897;BME280;52677;50.898;10.854;2023-05-07T02:55:21;98787.72;;;8.96;100.00
65897;BME280;52677;50.898;10.854;2023-05-07T02:57:21;98785.41;;;8.98;100.00
65897;BME280;52677;50.898;10.854;2023-05-07T02:59:21;98782.25;;;8.99;100.00
65897;BME280;52677;50.898;10.854;2023-05-07T03:01:22;98777.47;;;8.96;100.00
65897;BME280;52677;50.898;10.854;2023-05-07T03:03:22;98774.28;;;8.94;100.00
65897;BME280;52677;50.898;10.854;2023-05-07T03:05:22;98777.84;;;8.95;100.00
65897;BME280;52677;50.898;10.854;2023-05-07T03:07:23;98778.53;;;8.92;100.00
65897;BME280;52677;50.898;10.854;2023-05-07T03:09:23;98770.72;;;8.94;100.00
65897;BME280;52677;50.898;10.854;2023-05-07T03:11:24;98781.75;;;8.94;100.00
65897;BME280;52677;50.898;10.854;2023-05-07T03:13:24;98778.19;;;8.93;100.00
65897;BME280;52677;50.898;10.854;2023-05-07T03:15:24;98771.78;;;8.89;100.00
65897;BME280;52677;50.898;10.854;2023-05-07T03:17:25;98767.88;;;8.90;100.00
65897;BME280;52677;50.898;10.854;2023-05-07T03:19:25;98771.72;;;8.86;100.00
65897;BME280;52677;50.898;10.854;2023-05-07T03:21:25;98781.22;;;8.88;100.00
65897;BME280;52677;50.898;10.854;2023-05-07T03:23:26;98789.94;;;8.90;100.00
65897;BME280;52677;50.898;10.854;2023-05-07T03:25:27;98778.84;;;8.87;100.00
65897;BME280;52677;50.898;10.854;2023-05-07T03:27:27;98778.47;;;8.88;100.00
65897;BME280;52677;50.898;10.854;2023-05-07T03:29:28;98773.38;;;8.90;100.00
65897;BME280;52677;50.898;10.854;2023-05-07T03:31:28;98778.47;;;8.88;100.00
65897;BME280;52677;50.898;10.854;2023-05-07T03:33:29;98778.53;;;8.92;100.00
65897;BME280;52677;50.898;10.854;2023-05-07T03:35:29;98766.72;;;8.91;100.00
65897;BME280;52677;50.898;10.854;2023-05-07T03:37:29;98776.09;;;8.87;100.00
65897;BME280;52677;50.898;10.854;2023-05-07T03:39:30;98774.56;;;8.89;100.00
65897;BME280;52677;50.898;10.854;2023-05-07T03:41:32;98773.75;;;8.89;100.00
65897;BME280;52677;50.898;10.854;2023-05-07T03:43:32;98780.50;;;8.91;100.00
65897;BME280;52677;50.898;10.854;2023-05-07T03:45:32;98779.34;;;8.92;100.00
65897;BME280;52677;50.898;10.854;2023-05-07T03:47:33;98782.03;;;8.89;100.00
65897;BME280;52677;50.898;10.854;2023-05-07T03:49:33;98789.16;;;8.90;100.00
65897;BME280;52677;50.898;10.854;2023-05-07T03:51:33;98784.69;;;8.85;100.00
65897;BME280;52677;50.898;10.854;2023-05-07T03:53:34;98796.09;;;8.84;100.00
65897;BME280;52677;50.898;10.854;2023-05-07T03:55:34;98808.72;;;8.85;100.00
65897;BME280;52677;50.898;10.854;2023-05-07T03:57:35;98801.19;;;8.82;100.00
65897;BME280;52677;50.898;10.854;2023-05-07T03:59:36;98795.66;;;8.82;100.00
65897;BME280;52677;50.898;10.854;2023-05-07T04:01:36;98804.31;;;8.80;100.00
65897;BME280;52677;50.898;10.854;2023-05-07T04:03:36;98800.66;;;8.76;100.00
65897;BME280;52677;50.898;10.854;2023-05-07T04:05:37;98796.75;;;8.77;100.00
65897;BME280;52677;50.898;10.854;2023-05-07T04:07:37;98800.75;;;8.80;100.00
65897;BME280;52677;50.898;10.854;2023-05-07T04:09:37;98804.19;;;8.77;100.00
65897;BME280;52677;50.898;10.854;2023-05-07T04:11:37;98801.53;;;8.80;100.00
65897;BME280;52677;50.898;10.854;2023-05-07T04:13:40;98805.09;;;8.81;100.00
65897;BME280;52677;50.898;10.854;2023-05-07T04:15:40;98819.69;;;8.81;100.00
65897;BME280;52677;50.898;10.854;2023-05-07T04:17:40;98813.00;;;8.82;100.00
65897;BME280;52677;50.898;10.854;2023-05-07T04:19:41;98812.59;;;8.80;100.00
65897;BME280;52677;50.898;10.854;2023-05-07T04:21:45;98817.19;;;8.76;100.00
65897;BME280;52677;50.898;10.854;2023-05-07T04:23:49;98813.31;;;8.77;100.00
65897;BME280;52677;50.898;10.854;2023-05-07T04:25:50;98819.63;;;8.78;100.00
65897;BME280;52677;50.898;10.854;2023-05-07T04:27:50;98823.50;;;8.77;100.00
65897;BME280;52677;50.898;10.854;2023-05-07T04:29:51;98833.06;;;8.79;100.00
65897;BME280;52677;50.898;10.854;2023-05-07T04:31:51;98829.84;;;8.77;100.00
65897;BME280;52677;50.898;10.854;2023-05-07T04:33:52;98816.88;;;8.78;100.00
65897;BME280;52677;50.898;10.854;2023-05-07T04:35:52;98831.47;;;8.78;100.00
65897;BME280;52677;50.898;10.854;2023-05-07T04:37:52;98820.75;;;8.77;100.00
65897;BME280;52677;50.898;10.854;2023-05-07T04:39:53;98821.59;;;8.77;100.00
65897;BME280;52677;50.898;10.854;2023-05-07T04:41:53;98828.59;;;8.75;100.00
65897;BME280;52677;50.898;10.854;2023-05-07T04:43:53;98827.78;;;8.74;100.00
65897;BME280;52677;50.898;10.854;2023-05-07T04:45:54;98825.47;;;8.76;100.00
65897;BME280;52677;50.898;10.854;2023-05-07T04:47:54;98833.06;;;8.79;100.00
65897;BME280;52677;50.898;10.854;2023-05-07T04:49:55;98831.78;;;8.77;100.00
65897;BME280;52677;50.898;10.854;2023-05-07T04:51:55;98827.44;;;8.76;100.00
65897;BME280;52677;50.898;10.854;2023-05-07T04:53:55;98828.22;;;8.76;100.00
65897;BME280;52677;50.898;10.854;2023-05-07T04:55:56;98832.16;;;8.75;100.00
65897;BME280;52677;50.898;10.854;2023-05-07T04:57:57;98836.19;;;8.78;100.00
65897;BME280;52677;50.898;10.854;2023-05-07T04:59:57;98835.72;;;8.76;100.00
65897;BME280;52677;50.898;10.854;2023-05-07T05:01:58;98848.34;;;8.77;100.00
65897;BME280;52677;50.898;10.854;2023-05-07T05:03:58;98844.44;;;8.78;100.00
65897;BME280;52677;50.898;10.854;2023-05-07T05:06:00;98848.00;;;8.78;100.00
65897;BME280;52677;50.898;10.854;2023-05-07T05:08:00;98841.69;;;8.78;100.00
65897;BME280;52677;50.898;10.854;2023-05-07T05:10:02;98853.97;;;8.80;100.00
65897;BME280;52677;50.898;10.854;2023-05-07T05:12:03;98851.22;;;8.80;100.00
65897;BME280;52677;50.898;10.854;2023-05-07T05:14:03;98852.00;;;8.81;100.00
65897;BME280;52677;50.898;10.854;2023-05-07T05:16:04;98844.09;;;8.79;100.00
65897;BME280;52677;50.898;10.854;2023-05-07T05:18:04;98844.78;;;8.76;100.00
65897;BME280;52677;50.898;10.854;2023-05-07T05:20:05;98846.84;;;8.79;100.00
65897;BME280;52677;50.898;10.854;2023-05-07T05:22:06;98849.25;;;8.81;100.00
65897;BME280;52677;50.898;10.854;2023-05-07T05:24:06;98848.34;;;8.77;100.00
65897;BME280;52677;50.898;10.854;2023-05-07T05:26:07;98850.84;;;8.82;100.00
65897;BME280;52677;50.898;10.854;2023-05-07T05:28:07;98849.69;;;8.83;100.00
65897;BME280;52677;50.898;10.854;2023-05-07T05:30:08;98850.47;;;8.83;100.00
65897;BME280;52677;50.898;10.854;2023-05-07T05:32:08;98846.13;;;8.82;100.00
65897;BME280;52677;50.898;10.854;2023-05-07T05:34:08;98852.06;;;8.84;100.00
65897;BME280;52677;50.898;10.854;2023-05-07T05:36:09;98856.44;;;8.85;100.00
65897;BME280;52677;50.898;10.854;2023-05-07T05:38:09;98856.09;;;8.87;100.00
65897;BME280;52677;50.898;10.854;2023-05-07T05:40:10;98855.31;;;8.86;100.00
65897;BME280;52677;50.898;10.854;2023-05-07T05:42:11;98860.81;;;8.86;100.00
65897;BME280;52677;50.898;10.854;2023-05-07T05:44:11;98860.09;;;8.89;100.00
65897;BME280;52677;50.898;10.854;2023-05-07T05:46:11;98859.38;;;8.92;100.00
65897;BME280;52677;50.898;10.854;2023-05-07T05:48:11;98870.50;;;8.96;100.00
65897;BME280;52677;50.898;10.854;2023-05-07T05:50:12;98873.63;;;8.94;100.00
65897;BME280;52677;50.898;10.854;2023-05-07T05:52:12;98873.72;;;8.98;100.00
65897;BME280;52677;50.898;10.854;2023-05-07T05:54:14;98877.25;;;8.98;100.00
65897;BME280;52677;50.898;10.854;2023-05-07T05:56:15;98874.94;;;9.00;100.00
65897;BME280;52677;50.898;10.854;2023-05-07T05:58:16;98877.69;;;9.00;100.00
65897;BME280;52677;50.898;10.854;2023-05-07T06:00:16;98875.41;;;9.03;100.00
65897;BME280;52677;50.898;10.854;2023-05-07T06:02:17;98882.88;;;9.02;100.00
65897;BME280;52677;50.898;10.854;2023-05-07T06:04:17;98877.69;;;9.00;100.00
65897;BME280;52677;50.898;10.854;2023-05-07T06:06:17;98888.03;;;9.04;100.00
65897;BME280;52677;50.898;10.854;2023-05-07T06:08:18;98884.91;;;9.05;100.00
65897;BME280;52677;50.898;10.854;2023-05-07T06:10:18;98891.59;;;9.04;100.00
65897;BME280;52677;50.898;10.854;2023-05-07T06:12:18;98890.69;;;9.00;100.00
65897;BME280;52677;50.898;10.854;2023-05-07T06:14:19;98888.31;;;8.98;100.00
65897;BME280;52677;50.898;10.854;2023-05-07T06:16:19;98887.50;;;8.98;100.00
65897;BME280;52677;50.898;10.854;2023-05-07T06:18:20;98891.50;;;9.00;100.00
65897;BME280;52677;50.898;10.854;2023-05-07T06:20:20;98898.53;;;8.98;100.00
65897;BME280;52677;50.898;10.854;2023-05-07T06:22:20;98888.66;;;8.97;100.00
65897;BME280;52677;50.898;10.854;2023-05-07T06:24:21;98893.38;;;8.96;100.00
65897;BME280;52677;50.898;10.854;2023-05-07T06:26:21;98892.59;;;8.96;100.00
65897;BME280;52677;50.898;10.854;2023-05-07T06:28:21;98893.38;;;8.96;100.00
65897;BME280;52677;50.898;10.854;2023-05-07T06:30:22;98892.22;;;8.97;100.00
65897;BME280;52677;50.898;10.854;2023-05-07T06:32:22;98888.31;;;8.98;100.00
65897;BME280;52677;50.898;10.854;2023-05-07T06:34:22;98887.94;;;9.00;100.00
65897;BME280;52677;50.898;10.854;2023-05-07T06:36:23;98891.06;;;8.98;100.00
65897;BME280;52677;50.898;10.854;2023-05-07T06:38:23;98902.53;;;9.00;100.00
65897;BME280;52677;50.898;10.854;2023-05-07T06:40:23;98906.47;;;8.99;100.00
65897;BME280;52677;50.898;10.854;2023-05-07T06:42:24;98913.25;;;9.02;100.00
65897;BME280;52677;50.898;10.854;2023-05-07T06:44:24;98918.03;;;9.05;100.00
65897;BME280;52677;50.898;10.854;2023-05-07T06:46:25;98914.38;;;9.01;100.00
65897;BME280;52677;50.898;10.854;2023-05-07T06:48:25;98911.34;;;9.06;100.00
65897;BME280;52677;50.898;10.854;2023-05-07T06:50:25;98908.16;;;9.04;100.00
65897;BME280;52677;50.898;10.854;2023-05-07T06:52:26;98913.31;;;9.06;100.00
65897;BME280;52677;50.898;10.854;2023-05-07T06:54:26;98906.91;;;9.01;100.00
65897;BME280;52677;50.898;10.854;2023-05-07T06:56:26;98915.28;;;9.05;100.00
65897;BME280;52677;50.898;10.854;2023-05-07T06:58:27;98924.28;;;9.02;100.00
65897;BME280;52677;50.898;10.854;2023-05-07T07:00:27;98917.94;;;9.01;100.00
65897;BME280;52677;50.898;10.854;2023-05-07T07:02:27;98924.63;;;9.00;100.00
65897;BME280;52677;50.898;10.854;2023-05-07T07:04:28;98923.75;;;8.96;100.00
65897;BME280;52677;50.898;10.854;2023-05-07T07:06:28;98920.63;;;8.98;100.00
65897;BME280;52677;50.898;10.854;2023-05-07T07:08:29;98914.75;;;8.99;100.00
65897;BME280;52677;50.898;10.854;2023-05-07T07:10:30;98918.91;;;8.93;100.00
65897;BME280;52677;50.898;10.854;2023-05-07T07:12:30;98932.28;;;8.91;100.00
65897;BME280;52677;50.898;10.854;2023-05-07T07:14:30;98928.03;;;8.94;100.00
65897;BME280;52677;50.898;10.854;2023-05-07T07:16:31;98924.91;;;8.95;100.00
65897;BME280;52677;50.898;10.854;2023-05-07T07:18:31;98925.59;;;8.92;100.00
65897;BME280;52677;50.898;10.854;2023-05-07T07:20:32;98931.13;;;8.92;100.00
65897;BME280;52677;50.898;10.854;2023-05-07T07:22:32;98932.81;;;8.97;100.00
65897;BME280;52677;50.898;10.854;2023-05-07T07:24:32;98934.41;;;8.98;100.00
65897;BME280;52677;50.898;10.854;2023-05-07T07:26:33;98933.38;;;9.03;100.00
65897;BME280;52677;50.898;10.854;2023-05-07T07:28:33;98925.72;;;8.96;100.00
65897;BME280;52677;50.898;10.854;2023-05-07T07:30:33;98930.88;;;8.97;100.00
65897;BME280;52677;50.898;10.854;2023-05-07T07:32:34;98933.19;;;8.95;100.00
65897;BME280;52677;50.898;10.854;2023-05-07T07:34:34;98926.13;;;8.98;100.00
65897;BME280;52677;50.898;10.854;2023-05-07T07:36:35;98931.59;;;8.94;100.00
65897;BME280;52677;50.898;10.854;2023-05-07T07:38:35;98932.47;;;8.98;100.00
65897;BME280;52677;50.898;10.854;2023-05-07T07:40:35;98933.88;;;8.92;100.00
65897;BME280;52677;50.898;10.854;2023-05-07T07:42:36;98937.91;;;8.95;100.00
65897;BME280;52677;50.898;10.854;2023-05-07T07:44:36;98933.63;;;8.97;100.00
65897;BME280;52677;50.898;10.854;2023-05-07T07:46:36;98938.59;;;8.92;100.00
65897;BME280;52677;50.898;10.854;2023-05-07T07:48:37;98927.19;;;8.93;100.00
65897;BME280;52677;50.898;10.854;2023-05-07T07:50:38;98934.25;;;8.91;100.00
65897;BME280;52677;50.898;10.854;2023-05-07T07:52:38;98925.25;;;8.94;100.00
65897;BME280;52677;50.898;10.854;2023-05-07T07:54:38;98935.47;;;8.93;100.00
65897;BME280;52677;50.898;10.854;2023-05-07T07:56:39;98936.47;;;9.01;100.00
65897;BME280;52677;50.898;10.854;2023-05-07T07:58:39;98936.13;;;9.03;100.00
65897;BME280;52677;50.898;10.854;2023-05-07T08:00:40;98932.28;;;9.07;100.00
65897;BME280;52677;50.898;10.854;2023-05-07T08:02:40;98926.06;;;9.10;100.00
65897;BME280;52677;50.898;10.854;2023-05-07T08:04:40;98938.84;;;9.18;100.00
65897;BME280;52677;50.898;10.854;2023-05-07T08:06:41;98936.63;;;9.24;100.00
65897;BME280;52677;50.898;10.854;2023-05-07T08:08:42;98927.28;;;9.28;100.00
65897;BME280;52677;50.898;10.854;2023-05-07T08:10:43;98933.31;;;9.34;100.00
65897;BME280;52677;50.898;10.854;2023-05-07T08:12:43;98936.63;;;9.40;100.00
65897;BME280;52677;50.898;10.854;2023-05-07T08:14:43;98943.66;;;9.37;100.00
65897;BME280;52677;50.898;10.854;2023-05-07T08:16:44;98948.38;;;9.37;100.00
65897;BME280;52677;50.898;10.854;2023-05-07T08:18:44;98949.09;;;9.34;100.00
65897;BME280;52677;50.898;10.854;2023-05-07T08:20:44;98948.47;;;9.24;100.00
65897;BME280;52677;50.898;10.854;2023-05-07T08:22:45;98948.22;;;9.29;100.00
65897;BME280;52677;50.898;10.854;2023-05-07T08:24:45;98943.50;;;9.30;100.00
65897;BME280;52677;50.898;10.854;2023-05-07T08:26:45;98950.44;;;9.24;100.00
65897;BME280;52677;50.898;10.854;2023-05-07T08:28:46;98940.13;;;9.21;100.00
65897;BME280;52677;50.898;10.854;2023-05-07T08:30:46;98947.59;;;9.20;100.00
65897;BME280;52677;50.898;10.854;2023-05-07T08:32:46;98950.97;;;9.14;100.00
65897;BME280;52677;50.898;10.854;2023-05-07T08:34:47;98957.84;;;9.20;100.00
65897;BME280;52677;50.898;10.854;2023-05-07T08:36:48;98948.66;;;9.16;100.00
65897;BME280;52677;50.898;10.854;2023-05-07T08:38:48;98960.44;;;9.13;100.00
65897;BME280;52677;50.898;10.854;2023-05-07T08:40:49;98949.47;;;9.16;100.00
65897;BME280;52677;50.898;10.854;2023-05-07T08:42:52;98947.41;;;9.13;100.00
65897;BME280;52677;50.898;10.854;2023-05-07T08:44:52;98953.47;;;9.19;100.00
65897;BME280;52677;50.898;10.854;2023-05-07T08:46:56;98948.66;;;9.16;100.00
65897;BME280;52677;50.898;10.854;2023-05-07T08:48:56;98953.13;;;9.20;100.00
65897;BME280;52677;50.898;10.854;2023-05-07T08:50:58;98957.03;;;9.19;100.00
65897;BME280;52677;50.898;10.854;2023-05-07T08:52:58;98953.19;;;9.24;100.00
65897;BME280;52677;50.898;10.854;2023-05-07T08:55:00;98947.06;;;9.15;100.00
65897;BME280;52677;50.898;10.854;2023-05-07T08:57:02;98960.13;;;9.18;100.00
65897;BME280;52677;50.898;10.854;2023-05-07T08:59:03;98959.44;;;9.21;100.00
65897;BME280;52677;50.898;10.854;2023-05-07T09:01:08;98959.16;;;9.26;100.00
65897;BME280;52677;50.898;10.854;2023-05-07T09:03:08;98962.09;;;9.33;100.00
65897;BME280;52677;50.898;10.854;2023-05-07T09:05:12;98956.38;;;9.42;100.00
65897;BME280;52677;50.898;10.854;2023-05-07T09:07:13;98962.38;;;9.44;100.00
65897;BME280;52677;50.898;10.854;2023-05-07T09:09:21;98960.50;;;9.32;100.00
65897;BME280;52677;50.898;10.854;2023-05-07T09:11:22;98970.97;;;9.42;100.00
65897;BME280;52677;50.898;10.854;2023-05-07T09:13:23;98969.13;;;9.46;100.00
65897;BME280;52677;50.898;10.854;2023-05-07T09:15:23;98973.47;;;9.47;100.00
65897;BME280;52677;50.898;10.854;2023-05-07T09:17:24;98975.09;;;9.48;100.00
65897;BME280;52677;50.898;10.854;2023-05-07T09:19:25;98968.41;;;9.49;100.00
65897;BME280;52677;50.898;10.854;2023-05-07T09:21:25;98979.19;;;9.54;100.00
65897;BME280;52677;50.898;10.854;2023-05-07T09:23:26;98976.59;;;9.62;100.00
65897;BME280;52677;50.898;10.854;2023-05-07T09:25:33;98969.91;;;9.63;100.00
65897;BME280;52677;50.898;10.854;2023-05-07T09:27:34;98975.06;;;9.64;100.00
65897;BME280;52677;50.898;10.854;2023-05-07T09:29:35;98978.44;;;9.57;100.00
65897;BME280;52677;50.898;10.854;2023-05-07T09:31:38;98979.72;;;9.60;100.00
65897;BME280;52677;50.898;10.854;2023-05-07T09:33:39;98981.75;;;9.63;100.00
65897;BME280;52677;50.898;10.854;2023-05-07T09:35:39;98977.88;;;9.68;100.00
65897;BME280;52677;50.898;10.854;2023-05-07T09:37:40;98974.34;;;9.67;100.00
65897;BME280;52677;50.898;10.854;2023-05-07T09:39:50;98979.41;;;9.65;100.00
65897;BME280;52677;50.898;10.854;2023-05-07T09:41:50;98983.63;;;9.59;100.00
65897;BME280;52677;50.898;10.854;2023-05-07T09:43:54;98986.53;;;9.66;100.00
65897;BME280;52677;50.898;10.854;2023-05-07T09:45:55;98975.13;;;9.68;100.00
65897;BME280;52677;50.898;10.854;2023-05-07T09:47:57;98978.25;;;9.66;100.00
65897;BME280;52677;50.898;10.854;2023-05-07T09:49:59;98975.44;;;9.63;100.00
65897;BME280;52677;50.898;10.854;2023-05-07T09:52:06;98977.56;;;9.69;100.00
65897;BME280;52677;50.898;10.854;2023-05-07T09:54:09;98985.66;;;9.78;100.00
65897;BME280;52677;50.898;10.854;2023-05-07T09:56:11;98980.13;;;9.78;100.00
65897;BME280;52677;50.898;10.854;2023-05-07T09:58:13;98981.00;;;9.82;100.00
65897;BME280;52677;50.898;10.854;2023-05-07T10:00:15;98976.06;;;9.91;100.00
65897;BME280;52677;50.898;10.854;2023-05-07T10:02:17;98980.94;;;9.98;100.00
65897;BME280;52677;50.898;10.854;2023-05-07T10:04:19;98987.38;;;10.02;100.00
65897;BME280;52677;50.898;10.854;2023-05-07T10:06:21;98974.34;;;10.02;100.00
65897;BME280;52677;50.898;10.854;2023-05-07T10:08:22;98980.22;;;10.01;100.00
65897;BME280;52677;50.898;10.854;2023-05-07T10:10:23;98977.38;;;9.97;100.00
65897;BME280;52677;50.898;10.854;2023-05-07T10:12:24;98978.13;;;9.94;100.00
65897;BME280;52677;50.898;10.854;2023-05-07T10:14:25;98973.38;;;9.95;100.00
65897;BME280;52677;50.898;10.854;2023-05-07T10:16:25;98971.00;;;9.93;100.00
65897;BME280;52677;50.898;10.854;2023-05-07T10:18:27;98974.19;;;9.95;100.00
65897;BME280;52677;50.898;10.854;2023-05-07T10:20:34;98977.91;;;10.03;100.00
65897;BME280;52677;50.898;10.854;2023-05-07T10:22:44;98968.22;;;10.12;100.00
65897;BME280;52677;50.898;10.854;2023-05-07T10:24:48;98964.56;;;10.08;100.00
65897;BME280;52677;50.898;10.854;2023-05-07T10:26:51;98961.97;;;10.16;100.00
65897;BME280;52677;50.898;10.854;2023-05-07T10:29:17;98964.44;;;10.21;100.00
65897;BME280;52677;50.898;10.854;2023-05-07T10:31:48;98970.53;;;10.26;100.00
65897;BME280;52677;50.898;10.854;2023-05-07T10:33:51;98968.56;;;10.27;100.00